createdAt,value
2019-06-01T00:05:38.456Z,93590.06
2019-06-01T00:16:11.705Z,93584.88
2019-06-01T00:26:45.889Z,93576.53
2019-06-01T00:37:19.012Z,93572.03
2019-06-01T00:47:53.045Z,93572.35
2019-06-01T00:58:26.105Z,93578.01
2019-06-01T01:08:59.758Z,93564.42
2019-06-01T01:19:33.165Z,93547.30
2019-06-01T01:30:06.748Z,93537.44
2019-06-01T01:40:40.246Z,93525.27
2019-06-01T01:51:12.737Z,93531.50
2019-06-01T02:01:45.563Z,93528.05
2019-06-01T02:12:19.058Z,93518.00
2019-06-01T02:22:53.077Z,93506.69
2019-06-01T02:33:26.622Z,93509.16
2019-06-01T02:44:01.632Z,93518.66
2019-06-01T02:54:35.171Z,93519.91
2019-06-01T03:05:07.797Z,93516.22
2019-06-01T03:15:43.504Z,93518.58
2019-06-01T03:26:17.335Z,93526.02
2019-06-01T03:36:52.057Z,93535.88
2019-06-01T03:47:25.600Z,93545.20
2019-06-01T03:57:58.996Z,93545.48
2019-06-01T04:08:31.884Z,93546.23
2019-06-01T04:19:05.906Z,93544.63
2019-06-01T04:29:39.187Z,93547.16
2019-06-01T04:40:12.038Z,93559.80
2019-06-01T04:50:45.677Z,93573.35
2019-06-01T05:01:19.182Z,93560.25
2019-06-01T05:11:52.975Z,93556.47
2019-06-01T05:22:26.477Z,93570.88
2019-06-01T05:32:59.914Z,93569.28
2019-06-01T05:43:33.631Z,93574.99
2019-06-01T05:54:07.195Z,93590.40
2019-06-01T06:04:40.909Z,93591.42
2019-06-01T06:15:13.848Z,93577.72
2019-06-01T06:25:47.379Z,93574.45
2019-06-01T06:36:21.786Z,93576.17
2019-06-01T06:46:54.489Z,93582.96
2019-06-01T06:57:28.134Z,93583.17
2019-06-01T07:08:01.652Z,93587.07
2019-06-01T07:18:35.249Z,93592.20
2019-06-01T07:29:08.803Z,93594.14
2019-06-01T07:39:42.296Z,93593.86
2019-06-01T07:50:16.013Z,93591.81
2019-06-01T08:00:49.725Z,93586.06
2019-06-01T08:11:25.400Z,93584.87
2019-06-01T08:21:58.716Z,93586.20
2019-06-01T08:32:32.785Z,93596.71
2019-06-01T08:43:06.330Z,93603.27
2019-06-01T08:53:39.897Z,93606.39
2019-06-01T09:04:13.724Z,93615.61
2019-06-01T09:14:46.611Z,93605.83
2019-06-01T09:25:20.551Z,93600.88
2019-06-01T09:35:56.379Z,93599.69
2019-06-01T09:46:28.977Z,93584.72
2019-06-01T09:57:01.820Z,93575.83
2019-06-01T10:07:36.900Z,93571.16
2019-06-01T10:18:09.960Z,93559.75
2019-06-01T10:28:43.580Z,93555.88
2019-06-01T10:39:19.638Z,93540.63
2019-06-01T10:49:53.385Z,93537.60
2019-06-01T11:00:39.708Z,93527.63
2019-06-01T11:11:04.384Z,93527.45
2019-06-01T11:21:39.479Z,93516.43
2019-06-01T11:32:12.918Z,93500.13
2019-06-01T11:42:46.695Z,93508.11
2019-06-01T11:53:20.255Z,93507.69
2019-06-01T12:03:53.720Z,93500.36
2019-06-01T12:14:27.060Z,93491.34
2019-06-01T12:25:00.577Z,93491.92
2019-06-01T12:35:34.074Z,93478.50
2019-06-01T12:46:07.990Z,93476.84
2019-06-01T12:56:41.034Z,93468.56
2019-06-01T13:07:13.872Z,93468.05
2019-06-01T13:17:47.548Z,93457.16
2019-06-01T13:28:35.052Z,93461.64
2019-06-01T13:38:56.878Z,93450.06
2019-06-01T13:49:30.545Z,93442.55
2019-06-01T14:00:03.888Z,93444.83
2019-06-01T14:10:37.578Z,93448.01
2019-06-01T14:21:11.006Z,93440.07
2019-06-01T14:31:43.867Z,93426.96
2019-06-01T14:42:16.541Z,93421.98
2019-06-01T14:52:49.607Z,93418.88
2019-06-01T15:03:23.298Z,93399.22
2019-06-01T15:13:56.798Z,93393.63
2019-06-01T15:24:30.584Z,93395.72
2019-06-01T15:35:03.790Z,93396.62
2019-06-01T15:45:41.094Z,93401.85
2019-06-01T15:56:13.096Z,93395.41
2019-06-01T16:06:46.221Z,93384.31
2019-06-01T16:17:19.899Z,93382.69
2019-06-01T16:27:54.561Z,93395.64
2019-06-01T16:38:28.107Z,93396.92
2019-06-01T16:49:01.787Z,93408.70
2019-06-01T16:59:35.500Z,93416.28
2019-06-01T17:10:24.619Z,93419.58
2019-06-01T17:20:53.302Z,93418.27
2019-06-01T17:31:26.890Z,93424.42
2019-06-01T17:42:00.341Z,93429.27
2019-06-01T17:52:34.180Z,93446.44
2019-06-01T18:03:08.067Z,93457.33
2019-06-01T18:13:41.418Z,93461.56
2019-06-01T18:24:14.824Z,93471.41
2019-06-01T18:34:47.583Z,93474.46
2019-06-01T18:45:21.442Z,93480.59
2019-06-01T18:55:55.004Z,93480.72
2019-06-01T19:06:28.733Z,93483.38
2019-06-01T19:17:01.395Z,93488.05
2019-06-01T19:27:35.019Z,93497.58
2019-06-01T19:38:11.207Z,93507.02
2019-06-01T19:48:44.331Z,93513.58
2019-06-01T19:59:18.042Z,93519.35
2019-06-01T20:09:51.271Z,93526.81
2019-06-01T20:20:24.037Z,93519.62
2019-06-01T20:30:56.877Z,93527.69
2019-06-01T20:41:29.570Z,93514.48
2019-06-01T20:52:02.945Z,93512.41
2019-06-01T21:02:36.447Z,93517.23
2019-06-01T21:13:10.047Z,93523.72
2019-06-01T21:23:42.878Z,93536.91
2019-06-01T21:34:17.115Z,93546.23
2019-06-01T21:44:50.215Z,93546.58
2019-06-01T21:55:24.471Z,93555.67
2019-06-01T22:05:58.244Z,93538.08
2019-06-01T22:16:32.106Z,93522.52
2019-06-01T22:27:04.924Z,93518.51
2019-06-01T22:37:38.561Z,93515.17
2019-06-01T22:48:11.224Z,93511.25
2019-06-01T22:58:43.924Z,93515.89
2019-06-01T23:09:17.575Z,93514.97
2019-06-01T23:19:51.065Z,93518.08
2019-06-01T23:30:24.705Z,93509.60
2019-06-01T23:40:58.222Z,93524.61
2019-06-01T23:51:32.019Z,93507.26
